createdAt,value
2023-02-24T00:03:50.514Z,3.20
2023-02-24T00:08:18.516Z,4.13
2023-02-24T00:12:27.046Z,3.93
2023-02-24T00:16:37.593Z,3.23
2023-02-24T00:21:08.330Z,4.40
2023-02-24T00:25:16.964Z,3.10
2023-02-24T00:29:26.036Z,3.77
2023-02-24T00:33:35.530Z,4.20
2023-02-24T00:37:44.076Z,5.33
2023-02-24T00:41:52.647Z,4.73
2023-02-24T00:46:02.584Z,4.00
2023-02-24T00:50:13.634Z,3.63
2023-02-24T00:54:24.059Z,3.10
2023-02-24T00:58:32.597Z,3.53
2023-02-24T01:02:41.153Z,3.60
2023-02-24T01:06:52.049Z,4.73
2023-02-24T01:11:19.922Z,3.33
2023-02-24T01:15:28.860Z,3.40
2023-02-24T01:19:38.096Z,4.17
2023-02-24T01:24:10.689Z,3.57
2023-02-24T01:28:19.317Z,4.87
2023-02-24T01:32:28.944Z,4.60
2023-02-24T01:36:39.244Z,3.47
2023-02-24T01:41:07.634Z,3.60
2023-02-24T01:45:19.580Z,5.00
2023-02-24T01:49:43.320Z,3.60
2023-02-24T01:53:52.086Z,3.90
2023-02-24T01:58:04.935Z,3.67
2023-02-24T02:02:14.807Z,3.50
2023-02-24T02:06:23.571Z,5.13
2023-02-24T02:10:33.935Z,3.20
2023-02-24T02:14:47.280Z,5.43
2023-02-24T02:19:24.994Z,3.47
2023-02-24T02:23:40.939Z,3.97
2023-02-24T02:28:04.670Z,4.23
2023-02-24T02:32:53.313Z,3.60
2023-02-24T02:37:25.629Z,3.93
2023-02-24T02:42:02.018Z,4.03
2023-02-24T02:46:14.881Z,3.87
2023-02-24T02:50:32.460Z,3.70
2023-02-24T02:54:48.398Z,4.47
2023-02-24T02:58:58.179Z,4.37
2023-02-24T03:03:15.686Z,3.27
2023-02-24T03:07:29.165Z,4.60
2023-02-24T03:11:39.273Z,3.80
2023-02-24T03:16:03.292Z,5.10
2023-02-24T03:20:24.178Z,4.67
2023-02-24T03:24:34.648Z,3.60
2023-02-24T03:28:59.308Z,5.40
2023-02-24T03:33:26.522Z,4.90
2023-02-24T03:37:36.801Z,3.90
2023-02-24T03:41:48.579Z,4.97
2023-02-24T03:45:58.454Z,4.60
2023-02-24T03:50:16.251Z,4.47
2023-02-24T03:54:33.853Z,4.57
2023-02-24T03:58:54.295Z,5.20
2023-02-24T04:03:41.742Z,3.90
2023-02-24T04:07:56.384Z,4.87
2023-02-24T04:12:18.489Z,4.20
2023-02-24T04:16:42.042Z,4.87
2023-02-24T04:20:53.223Z,4.70
2023-02-24T04:25:24.808Z,4.40
2023-02-24T04:29:36.927Z,4.80
2023-02-24T04:33:53.219Z,4.47
2023-02-24T04:38:02.104Z,5.67
2023-02-24T04:42:10.841Z,4.23
2023-02-24T04:46:20.479Z,4.30
2023-02-24T04:50:32.097Z,5.20
2023-02-24T04:54:40.671Z,4.40
2023-02-24T04:58:49.200Z,4.80
2023-02-24T05:02:58.112Z,4.43
2023-02-24T05:07:06.673Z,4.50
2023-02-24T05:11:19.617Z,4.80
2023-02-24T05:15:32.648Z,3.40
2023-02-24T05:19:59.000Z,3.47
2023-02-24T05:24:08.548Z,4.60
2023-02-24T05:28:37.433Z,6.10
2023-02-24T05:32:45.935Z,4.30
2023-02-24T05:36:54.603Z,4.53
2023-02-24T05:41:16.659Z,3.90
2023-02-24T05:45:26.833Z,4.40
2023-02-24T05:49:38.272Z,4.13
2023-02-24T05:53:48.495Z,4.23
2023-02-24T05:57:57.600Z,3.57
2023-02-24T06:02:12.905Z,3.90
2023-02-24T06:06:23.148Z,3.10
2023-02-24T06:10:33.893Z,4.80
2023-02-24T06:14:42.452Z,3.93
2023-02-24T06:18:51.094Z,4.10
2023-02-24T06:22:59.790Z,3.10
2023-02-24T06:27:10.995Z,4.60
2023-02-24T06:31:21.408Z,3.83
2023-02-24T06:35:30.204Z,3.87
2023-02-24T06:39:39.208Z,3.50
2023-02-24T06:43:48.239Z,3.50
2023-02-24T06:47:57.944Z,3.67
2023-02-24T06:52:06.688Z,3.70
2023-02-24T06:56:19.291Z,3.80
2023-02-24T07:00:39.159Z,3.90
2023-02-24T07:04:48.834Z,2.87
2023-02-24T07:08:59.407Z,3.93
2023-02-24T07:13:09.376Z,3.57
2023-02-24T07:17:23.442Z,3.00
2023-02-24T07:21:34.389Z,3.30
2023-02-24T07:25:45.429Z,3.50
2023-02-24T07:29:54.458Z,4.53
2023-02-24T07:34:03.057Z,3.47
2023-02-24T07:38:13.324Z,3.30
2023-02-24T07:42:22.578Z,3.90
2023-02-24T07:46:32.380Z,3.37
2023-02-24T07:50:42.213Z,3.13
2023-02-24T07:54:50.805Z,2.97
2023-02-24T07:59:06.807Z,3.70
2023-02-24T08:03:36.940Z,3.13
2023-02-24T08:07:49.807Z,2.87
2023-02-24T08:11:58.497Z,2.67
2023-02-24T08:16:07.802Z,3.27
2023-02-24T08:20:18.566Z,2.80
2023-02-24T08:24:28.745Z,3.90
2023-02-24T08:28:38.937Z,3.23
2023-02-24T08:32:49.211Z,3.20
2023-02-24T08:36:57.894Z,3.10
2023-02-24T08:41:09.054Z,3.17
2023-02-24T08:45:17.689Z,3.80
2023-02-24T08:49:28.154Z,2.90
2023-02-24T08:53:39.841Z,3.30
2023-02-24T08:57:51.075Z,2.97
2023-02-24T09:02:21.068Z,2.87
2023-02-24T09:06:47.918Z,2.90
2023-02-24T09:10:56.546Z,2.97
2023-02-24T09:15:07.424Z,3.37
2023-02-24T09:19:17.697Z,5.13
2023-02-24T09:23:27.899Z,3.83
2023-02-24T09:27:50.550Z,4.27
2023-02-24T09:32:01.809Z,2.97
2023-02-24T09:36:30.406Z,3.40
2023-02-24T09:41:07.431Z,3.40
2023-02-24T09:45:13.264Z,2.97
2023-02-24T09:49:24.879Z,3.20
2023-02-24T09:53:43.525Z,3.87
2023-02-24T09:58:19.552Z,3.37
2023-02-24T10:02:50.653Z,2.90
2023-02-24T10:07:19.966Z,3.80
2023-02-24T10:11:33.373Z,2.37
2023-02-24T10:15:58.450Z,3.37
2023-02-24T10:20:21.203Z,3.57
2023-02-24T10:24:43.186Z,2.67
2023-02-24T10:28:57.541Z,4.37
2023-02-24T10:33:15.031Z,2.87
2023-02-24T10:37:29.206Z,3.53
2023-02-24T10:41:54.133Z,3.60
2023-02-24T10:46:07.186Z,2.90
2023-02-24T10:50:24.543Z,2.47
2023-02-24T10:54:37.228Z,2.80
2023-02-24T10:58:47.588Z,3.53
2023-02-24T11:03:09.600Z,3.37
2023-02-24T11:07:19.880Z,4.30
2023-02-24T11:11:33.164Z,2.70
2023-02-24T11:16:08.944Z,3.80
2023-02-24T11:20:21.377Z,2.60
2023-02-24T11:24:30.723Z,3.93
2023-02-24T11:29:15.404Z,4.57
2023-02-24T11:33:27.097Z,3.77
2023-02-24T11:37:47.580Z,4.03
2023-02-24T11:42:19.784Z,3.97
2023-02-24T11:46:34.292Z,3.30
2023-02-24T11:51:04.383Z,3.90
2023-02-24T11:55:35.541Z,4.13
2023-02-24T12:00:27.182Z,3.60
2023-02-24T12:04:48.608Z,3.00
2023-02-24T12:09:17.962Z,3.40
2023-02-24T12:13:29.573Z,4.00
2023-02-24T12:18:02.314Z,3.63
2023-02-24T12:22:16.195Z,4.13
2023-02-24T12:26:58.380Z,5.63
2023-02-24T12:31:17.525Z,3.67
2023-02-24T12:35:44.575Z,4.23
2023-02-24T12:40:13.844Z,4.03
2023-02-24T12:44:34.424Z,4.47
2023-02-24T12:49:10.236Z,3.90
2023-02-24T12:53:48.496Z,3.73
2023-02-24T12:58:24.715Z,5.00
2023-02-24T13:02:39.494Z,5.27
2023-02-24T13:07:14.825Z,5.10
2023-02-24T13:11:32.453Z,4.17
2023-02-24T13:16:01.869Z,5.87
2023-02-24T13:20:14.254Z,5.70
2023-02-24T13:24:26.025Z,5.87
2023-02-24T13:28:38.476Z,5.37
2023-02-24T13:32:49.550Z,5.87
2023-02-24T13:36:58.336Z,5.53
2023-02-24T13:41:31.336Z,6.57
2023-02-24T13:45:42.680Z,5.00
2023-02-24T13:49:57.032Z,5.83
2023-02-24T13:54:20.474Z,5.83
2023-02-24T13:59:07.094Z,6.77
2023-02-24T14:03:24.936Z,5.13
2023-02-24T14:07:36.642Z,4.75
2023-02-24T14:11:45.574Z,6.73
2023-02-24T14:16:15.128Z,6.00
2023-02-24T14:20:24.781Z,6.50
2023-02-24T14:24:33.383Z,6.03
2023-02-24T14:28:43.545Z,6.87
2023-02-24T14:32:52.423Z,5.80
2023-02-24T14:37:03.966Z,6.57
2023-02-24T14:41:27.655Z,5.13
2023-02-24T14:45:36.190Z,6.37
2023-02-24T14:50:05.743Z,5.27
2023-02-24T14:54:35.236Z,5.47
2023-02-24T14:58:46.836Z,4.87
2023-02-24T15:02:58.563Z,5.60
2023-02-24T15:07:10.431Z,6.17
2023-02-24T15:11:23.876Z,5.87
2023-02-24T15:15:35.702Z,7.47
2023-02-24T15:19:49.936Z,4.70
2023-02-24T15:24:07.830Z,6.43
2023-02-24T15:28:30.525Z,7.13
2023-02-24T15:32:39.845Z,7.33
2023-02-24T15:36:51.153Z,5.00
2023-02-24T15:41:02.974Z,4.10
2023-02-24T15:45:31.265Z,4.80
2023-02-24T15:49:39.891Z,5.10
2023-02-24T15:53:48.628Z,5.37
2023-02-24T15:58:04.336Z,4.57
2023-02-24T16:02:17.469Z,4.70
2023-02-24T16:06:28.325Z,4.73
2023-02-24T16:10:36.869Z,4.30
2023-02-24T16:14:46.105Z,4.40
2023-02-24T16:18:54.833Z,3.93
2023-02-24T16:23:05.715Z,3.70
2023-02-24T16:27:19.911Z,3.83
2023-02-24T16:31:28.955Z,3.10
2023-02-24T16:35:38.795Z,4.10
2023-02-24T16:39:49.374Z,3.03
2023-02-24T16:43:57.901Z,3.27
2023-02-24T16:48:09.748Z,2.57
2023-02-24T16:52:20.154Z,2.43
2023-02-24T16:56:28.777Z,4.13
2023-02-24T17:00:39.165Z,3.93
2023-02-24T17:04:47.977Z,3.83
2023-02-24T17:08:56.472Z,3.20
2023-02-24T17:13:05.139Z,2.97
2023-02-24T17:17:13.775Z,4.73
2023-02-24T17:21:22.393Z,3.70
2023-02-24T17:25:32.178Z,3.53
2023-02-24T17:29:41.295Z,3.67
2023-02-24T17:33:51.055Z,3.53
2023-02-24T17:37:59.685Z,2.90
2023-02-24T17:42:08.204Z,3.27
2023-02-24T17:46:16.828Z,3.43
2023-02-24T17:50:25.563Z,3.50
2023-02-24T17:54:34.661Z,2.77
2023-02-24T17:58:43.208Z,2.83
2023-02-24T18:02:53.455Z,2.40
2023-02-24T18:07:02.117Z,3.13
2023-02-24T18:11:13.831Z,3.20
2023-02-24T18:15:22.495Z,2.33
2023-02-24T18:19:31.192Z,2.50
2023-02-24T18:23:40.466Z,3.10
2023-02-24T18:27:49.115Z,2.50
2023-02-24T18:31:57.876Z,3.13
2023-02-24T18:36:06.970Z,3.20
2023-02-24T18:40:15.552Z,2.90
2023-02-24T18:44:24.082Z,2.83
2023-02-24T18:48:52.064Z,3.03
2023-02-24T18:53:00.693Z,2.63
2023-02-24T18:57:09.422Z,2.30
2023-02-24T19:01:23.843Z,2.77
2023-02-24T19:05:38.382Z,2.60
2023-02-24T19:09:42.884Z,2.13
2023-02-24T19:13:51.924Z,2.43
2023-02-24T19:18:01.166Z,2.80
2023-02-24T19:22:09.795Z,2.47
2023-02-24T19:26:27.034Z,3.33
2023-02-24T19:30:35.597Z,2.30
2023-02-24T19:34:44.290Z,3.03
2023-02-24T19:38:53.245Z,2.47
2023-02-24T19:43:01.846Z,2.10
2023-02-24T19:47:10.374Z,2.80
2023-02-24T19:51:24.100Z,2.33
2023-02-24T19:55:32.651Z,5.07
2023-02-24T19:59:41.379Z,3.37
2023-02-24T20:03:50.405Z,4.40
2023-02-24T20:07:59.357Z,2.90
2023-02-24T20:12:07.982Z,3.53
2023-02-24T20:16:19.373Z,2.63
2023-02-24T20:20:27.983Z,3.50
2023-02-24T20:24:36.823Z,2.50
2023-02-24T20:28:46.817Z,3.90
2023-02-24T20:32:55.480Z,3.20
2023-02-24T20:37:05.414Z,3.00
2023-02-24T20:41:14.577Z,2.97
2023-02-24T20:45:23.257Z,3.20
2023-02-24T20:49:33.112Z,3.00
2023-02-24T20:53:56.100Z,3.80
2023-02-24T20:57:53.341Z,3.60
2023-02-24T21:02:01.971Z,3.57
2023-02-24T21:06:15.850Z,3.50
2023-02-24T21:10:25.853Z,3.30
2023-02-24T21:14:34.834Z,4.30
2023-02-24T21:18:45.599Z,3.00
2023-02-24T21:22:54.226Z,3.03
2023-02-24T21:27:02.958Z,3.20
2023-02-24T21:31:17.932Z,3.07
2023-02-24T21:35:26.663Z,3.20
2023-02-24T21:39:35.504Z,2.80
2023-02-24T21:43:44.609Z,2.20
2023-02-24T21:47:53.161Z,2.57
2023-02-24T21:52:01.802Z,2.97
2023-02-24T21:56:18.967Z,2.47
2023-02-24T22:00:28.676Z,2.77
2023-02-24T22:04:37.228Z,2.53
2023-02-24T22:08:45.981Z,2.33
2023-02-24T22:12:56.854Z,3.60
2023-02-24T22:17:05.428Z,2.63
2023-02-24T22:21:17.343Z,3.00
2023-02-24T22:25:25.901Z,2.90
2023-02-24T22:29:34.518Z,3.17
2023-02-24T22:33:44.362Z,2.80
2023-02-24T22:37:53.633Z,2.80
2023-02-24T22:42:21.618Z,3.57
2023-02-24T22:46:49.829Z,3.40
2023-02-24T22:51:00.863Z,2.77
2023-02-24T22:55:10.213Z,3.67
2023-02-24T22:59:18.853Z,3.10
2023-02-24T23:03:32.037Z,2.73
2023-02-24T23:07:40.736Z,3.10
2023-02-24T23:12:11.671Z,3.60
2023-02-24T23:16:23.471Z,3.20
2023-02-24T23:20:32.492Z,3.27
2023-02-24T23:24:41.122Z,2.23
2023-02-24T23:29:10.398Z,3.33
2023-02-24T23:33:19.211Z,3.30
2023-02-24T23:37:27.796Z,2.93
2023-02-24T23:41:37.688Z,3.70
2023-02-24T23:46:10.121Z,3.30
2023-02-24T23:50:19.550Z,2.77
2023-02-24T23:54:28.114Z,4.30
2023-02-24T23:58:37.415Z,3.63
